createdAt,value
2023-05-20T00:00:20.160Z,-89.00
2023-05-20T00:01:20.812Z,-89.00
2023-05-20T00:02:21.471Z,-89.00
2023-05-20T00:03:22.395Z,-89.00
2023-05-20T00:04:22.917Z,-91.00
2023-05-20T00:05:23.255Z,-92.00
2023-05-20T00:06:23.655Z,-90.00
2023-05-20T00:07:24.220Z,-91.00
2023-05-20T00:08:24.710Z,-91.00
2023-05-20T00:09:25.555Z,-90.00
2023-05-20T00:10:26.140Z,-90.00
2023-05-20T00:11:26.516Z,-91.00
2023-05-20T00:12:26.999Z,-92.00
2023-05-20T00:13:27.460Z,-90.00
2023-05-20T00:14:27.882Z,-91.00
2023-05-20T00:15:28.353Z,-91.00
2023-05-20T00:16:28.796Z,-91.00
2023-05-20T00:17:29.692Z,-90.00
2023-05-20T00:18:30.144Z,-92.00
2023-05-20T00:19:30.890Z,-89.00
2023-05-20T00:20:31.656Z,-90.00
2023-05-20T00:21:32.275Z,-89.00
2023-05-20T00:22:32.999Z,-90.00
2023-05-20T00:23:33.567Z,-91.00
2023-05-20T00:24:34.299Z,-90.00
2023-05-20T00:25:35.189Z,-89.00
2023-05-20T00:26:35.315Z,-91.00
2023-05-20T00:27:35.819Z,-92.00
2023-05-20T00:28:36.771Z,-91.00
2023-05-20T00:29:37.526Z,-90.00
2023-05-20T00:29:47.226Z,-91.00
2023-05-20T00:30:48.001Z,-91.00
2023-05-20T00:31:47.943Z,-92.00
2023-05-20T00:32:48.458Z,-90.00
2023-05-20T00:33:48.469Z,-91.00
2023-05-20T00:34:48.867Z,-90.00
2023-05-20T00:35:49.336Z,-90.00
2023-05-20T00:36:50.106Z,-90.00
2023-05-20T00:37:50.147Z,-90.00
2023-05-20T00:38:50.557Z,-90.00
2023-05-20T00:39:51.070Z,-91.00
2023-05-20T00:40:51.585Z,-91.00
2023-05-20T00:41:52.062Z,-91.00
2023-05-20T00:42:52.310Z,-91.00
2023-05-20T00:43:52.870Z,-91.00
2023-05-20T00:44:53.229Z,-93.00
2023-05-20T00:45:53.785Z,-91.00
2023-05-20T00:46:54.160Z,-91.00
2023-05-20T00:47:54.963Z,-91.00
2023-05-20T00:48:55.136Z,-91.00
2023-05-20T00:49:55.562Z,-90.00
2023-05-20T00:50:55.971Z,-91.00
2023-05-20T00:51:56.505Z,-91.00
2023-05-20T00:52:57.000Z,-92.00
2023-05-20T00:53:57.612Z,-92.00
2023-05-20T00:54:58.130Z,-91.00
2023-05-20T00:55:58.566Z,-91.00
2023-05-20T00:56:59.057Z,-91.00
2023-05-20T00:57:59.544Z,-90.00
2023-05-20T00:58:59.992Z,-92.00
2023-05-20T01:00:00.832Z,-90.00
2023-05-20T01:01:01.407Z,-90.00
2023-05-20T01:02:02.106Z,-90.00
2023-05-20T01:03:03.127Z,-91.00
2023-05-20T01:03:12.832Z,-92.00
2023-05-20T01:04:13.142Z,-91.00
2023-05-20T01:05:13.785Z,-90.00
2023-05-20T01:06:14.510Z,-90.00
2023-05-20T01:07:15.291Z,-91.00
2023-05-20T01:08:16.091Z,-92.00
2023-05-20T01:09:16.782Z,-92.00
2023-05-20T01:10:16.930Z,-91.00
2023-05-20T01:11:17.598Z,-90.00
2023-05-20T01:12:18.590Z,-92.00
2023-05-20T01:13:19.307Z,-91.00
2023-05-20T01:14:21.082Z,-91.00
2023-05-20T01:15:20.819Z,-90.00
2023-05-20T01:16:21.566Z,-92.00
2023-05-20T01:17:22.196Z,-91.00
2023-05-20T01:18:22.897Z,-92.00
2023-05-20T01:19:23.498Z,-92.00
2023-05-20T01:20:23.835Z,-90.00
2023-05-20T01:21:24.461Z,-92.00
2023-05-20T01:22:24.884Z,-91.00
2023-05-20T01:23:25.607Z,-90.00
2023-05-20T01:24:26.070Z,-91.00
2023-05-20T01:25:26.817Z,-92.00
2023-05-20T01:26:27.507Z,-91.00
2023-05-20T01:27:28.235Z,-91.00
2023-05-20T01:28:28.897Z,-90.00
2023-05-20T01:29:29.635Z,-90.00
2023-05-20T01:30:30.387Z,-92.00
2023-05-20T01:31:31.208Z,-91.00
2023-05-20T01:32:32.148Z,-90.00
2023-05-20T01:33:32.943Z,-91.00
2023-05-20T01:34:33.625Z,-90.00
2023-05-20T01:34:42.306Z,-92.00
2023-05-20T01:35:42.928Z,-92.00
2023-05-20T01:36:43.608Z,-90.00
2023-05-20T01:37:44.272Z,-92.00
2023-05-20T01:38:44.960Z,-90.00
2023-05-20T01:39:45.631Z,-90.00
2023-05-20T01:40:46.432Z,-91.00
2023-05-20T01:41:47.229Z,-91.00
2023-05-20T01:42:47.983Z,-92.00
2023-05-20T01:43:48.665Z,-90.00
2023-05-20T01:44:49.443Z,-91.00
2023-05-20T01:45:50.120Z,-91.00
2023-05-20T01:46:50.995Z,-92.00
2023-05-20T01:47:51.157Z,-90.00
2023-05-20T01:48:51.841Z,-91.00
2023-05-20T01:49:52.511Z,-90.00
2023-05-20T01:50:53.088Z,-90.00
2023-05-20T01:51:53.938Z,-91.00
2023-05-20T01:52:54.426Z,-92.00
2023-05-20T01:53:54.940Z,-90.00
2023-05-20T01:54:55.681Z,-91.00
2023-05-20T01:55:56.491Z,-91.00
2023-05-20T01:56:56.554Z,-90.00
2023-05-20T01:57:57.282Z,-89.00
2023-05-20T01:58:57.665Z,-92.00
2023-05-20T01:59:58.412Z,-90.00
2023-05-20T02:00:58.482Z,-90.00
2023-05-20T02:01:58.634Z,-90.00
2023-05-20T02:02:59.360Z,-91.00
2023-05-20T02:04:00.033Z,-91.00
2023-05-20T02:05:00.822Z,-91.00
2023-05-20T02:06:00.936Z,-90.00
2023-05-20T02:07:01.578Z,-90.00
2023-05-20T02:08:02.237Z,-91.00
2023-05-20T02:08:10.888Z,-92.00
2023-05-20T02:09:11.661Z,-90.00
2023-05-20T02:10:12.362Z,-90.00
2023-05-20T02:11:12.977Z,-91.00
2023-05-20T02:12:13.806Z,-90.00
2023-05-20T02:13:14.536Z,-89.00
2023-05-20T02:14:15.468Z,-90.00
2023-05-20T02:15:16.055Z,-90.00
2023-05-20T02:16:16.000Z,-90.00
2023-05-20T02:17:16.150Z,-91.00
2023-05-20T02:18:16.284Z,-90.00
2023-05-20T02:19:16.592Z,-89.00
2023-05-20T02:20:17.212Z,-88.00
2023-05-20T02:21:17.782Z,-90.00
2023-05-20T02:22:18.257Z,-90.00
2023-05-20T02:23:19.238Z,-89.00
2023-05-20T02:24:19.872Z,-90.00
2023-05-20T02:25:20.521Z,-89.00
2023-05-20T02:26:21.505Z,-90.00
2023-05-20T02:27:22.042Z,-89.00
2023-05-20T02:28:22.520Z,-90.00
2023-05-20T02:29:23.174Z,-90.00
2023-05-20T02:30:23.637Z,-90.00
2023-05-20T02:31:23.685Z,-90.00
2023-05-20T02:32:24.496Z,-90.00
2023-05-20T02:33:24.552Z,-90.00
2023-05-20T02:34:24.702Z,-90.00
2023-05-20T02:35:24.988Z,-90.00
2023-05-20T02:36:25.553Z,-90.00
2023-05-20T02:37:26.220Z,-90.00
2023-05-20T02:38:26.786Z,-89.00
2023-05-20T02:39:27.499Z,-89.00
2023-05-20T02:39:38.389Z,-90.00
2023-05-20T02:40:39.330Z,-90.00
2023-05-20T02:41:39.878Z,-90.00
2023-05-20T02:42:40.682Z,-89.00
2023-05-20T02:43:41.158Z,-91.00
2023-05-20T02:44:41.256Z,-90.00
2023-05-20T02:45:42.489Z,-89.00
2023-05-20T02:46:42.894Z,-91.00
2023-05-20T02:47:43.695Z,-91.00
2023-05-20T02:48:44.297Z,-91.00
2023-05-20T02:49:44.795Z,-90.00
2023-05-20T02:50:45.261Z,-90.00
2023-05-20T02:51:45.699Z,-89.00
2023-05-20T02:52:46.378Z,-90.00
2023-05-20T02:53:47.184Z,-91.00
2023-05-20T02:54:47.951Z,-91.00
2023-05-20T02:55:48.648Z,-90.00
2023-05-20T02:56:49.293Z,-89.00
2023-05-20T02:57:49.553Z,-89.00
2023-05-20T02:58:50.321Z,-90.00
2023-05-20T02:59:50.599Z,-91.00
2023-05-20T03:00:50.778Z,-89.00
2023-05-20T03:01:51.491Z,-88.00
2023-05-20T03:02:52.224Z,-91.00
2023-05-20T03:03:52.616Z,-90.00
2023-05-20T03:04:53.486Z,-90.00
2023-05-20T03:05:54.157Z,-91.00
2023-05-20T03:06:54.890Z,-89.00
2023-05-20T03:07:55.499Z,-90.00
2023-05-20T03:08:56.327Z,-88.00
2023-05-20T03:09:56.578Z,-91.00
2023-05-20T03:10:05.206Z,-90.00
2023-05-20T03:11:06.769Z,-92.00
2023-05-20T03:12:06.815Z,-90.00
2023-05-20T03:13:07.577Z,-89.00
2023-05-20T03:14:08.344Z,-90.00
2023-05-20T03:15:09.088Z,-89.00
2023-05-20T03:16:10.086Z,-91.00
2023-05-20T03:17:11.729Z,-88.00
2023-05-20T03:18:11.160Z,-89.00
2023-05-20T03:19:12.920Z,-88.00
2023-05-20T03:20:12.611Z,-90.00
2023-05-20T03:21:13.283Z,-89.00
2023-05-20T03:22:13.697Z,-90.00
2023-05-20T03:23:14.398Z,-90.00
2023-05-20T03:24:14.928Z,-90.00
2023-05-20T03:25:15.227Z,-89.00
2023-05-20T03:26:15.736Z,-90.00
2023-05-20T03:27:16.284Z,-91.00
2023-05-20T03:28:16.867Z,-90.00
2023-05-20T03:29:17.339Z,-89.00
2023-05-20T03:30:18.861Z,-89.00
2023-05-20T03:31:18.715Z,-90.00
2023-05-20T03:32:19.220Z,-89.00
2023-05-20T03:33:20.055Z,-89.00
2023-05-20T03:34:20.553Z,-89.00
2023-05-20T03:35:21.138Z,-90.00
2023-05-20T03:36:21.778Z,-89.00
2023-05-20T03:37:22.264Z,-88.00
2023-05-20T03:38:23.105Z,-90.00
2023-05-20T03:39:23.606Z,-89.00
2023-05-20T03:40:24.187Z,-88.00
2023-05-20T03:41:24.729Z,-88.00
2023-05-20T03:42:25.196Z,-89.00
2023-05-20T03:42:33.769Z,-90.00
2023-05-20T03:43:34.022Z,-89.00
2023-05-20T03:44:34.713Z,-89.00
2023-05-20T03:45:35.469Z,-90.00
2023-05-20T03:46:35.254Z,-89.00
2023-05-20T03:47:35.658Z,-89.00
2023-05-20T03:48:36.271Z,-89.00
2023-05-20T03:49:36.715Z,-90.00
2023-05-20T03:50:36.719Z,-90.00
2023-05-20T03:51:37.099Z,-88.00
2023-05-20T03:52:37.552Z,-89.00
2023-05-20T03:53:38.306Z,-90.00
2023-05-20T03:54:38.976Z,-90.00
2023-05-20T03:55:39.023Z,-90.00
2023-05-20T03:56:39.837Z,-89.00
2023-05-20T03:57:40.653Z,-89.00
2023-05-20T03:58:41.022Z,-89.00
2023-05-20T03:59:41.816Z,-90.00
2023-05-20T04:00:42.217Z,-90.00
2023-05-20T04:01:42.779Z,-90.00
2023-05-20T04:02:43.064Z,-89.00
2023-05-20T04:03:43.557Z,-91.00
2023-05-20T04:04:43.924Z,-90.00
2023-05-20T04:05:44.534Z,-90.00
2023-05-20T04:06:44.989Z,-90.00
2023-05-20T04:07:46.429Z,-89.00
2023-05-20T04:08:48.281Z,-90.00
2023-05-20T04:09:46.053Z,-90.00
2023-05-20T04:10:46.788Z,-90.00
2023-05-20T04:11:47.555Z,-90.00
2023-05-20T04:12:49.117Z,-90.00
2023-05-20T04:12:57.777Z,-90.00
2023-05-20T04:13:58.358Z,-91.00
2023-05-20T04:14:59.123Z,-90.00
2023-05-20T04:15:59.846Z,-91.00
2023-05-20T04:17:00.603Z,-91.00
2023-05-20T04:18:01.115Z,-90.00
2023-05-20T04:19:01.828Z,-91.00
2023-05-20T04:20:02.468Z,-91.00
2023-05-20T04:21:03.118Z,-91.00
2023-05-20T04:22:03.898Z,-91.00
2023-05-20T04:23:04.545Z,-90.00
2023-05-20T04:24:04.615Z,-90.00
2023-05-20T04:25:05.257Z,-90.00
2023-05-20T04:26:05.926Z,-91.00
2023-05-20T04:27:06.665Z,-90.00
2023-05-20T04:28:07.246Z,-91.00
2023-05-20T04:29:07.833Z,-91.00
2023-05-20T04:30:08.452Z,-91.00
2023-05-20T04:31:09.201Z,-90.00
2023-05-20T04:32:11.049Z,-91.00
2023-05-20T04:33:10.757Z,-91.00
2023-05-20T04:34:11.361Z,-91.00
2023-05-20T04:35:12.354Z,-91.00
2023-05-20T04:36:13.014Z,-91.00
2023-05-20T04:37:13.715Z,-91.00
2023-05-20T04:38:14.339Z,-90.00
2023-05-20T04:39:15.068Z,-91.00
2023-05-20T04:40:15.667Z,-91.00
2023-05-20T04:41:16.318Z,-91.00
2023-05-20T04:42:16.815Z,-91.00
2023-05-20T04:43:17.475Z,-92.00
2023-05-20T04:43:26.137Z,-91.00
2023-05-20T04:44:26.777Z,-91.00
2023-05-20T04:45:27.400Z,-91.00
2023-05-20T04:46:27.467Z,-91.00
2023-05-20T04:47:27.958Z,-91.00
2023-05-20T04:48:28.719Z,-91.00
2023-05-20T04:49:29.326Z,-91.00
2023-05-20T04:50:29.898Z,-90.00
2023-05-20T04:51:30.621Z,-91.00
2023-05-20T04:52:31.347Z,-91.00
2023-05-20T04:53:32.117Z,-91.00
2023-05-20T04:54:32.631Z,-91.00
2023-05-20T04:55:33.313Z,-91.00
2023-05-20T04:56:33.502Z,-91.00
2023-05-20T04:57:34.021Z,-91.00
2023-05-20T04:58:34.545Z,-92.00
2023-05-20T04:59:35.243Z,-91.00
2023-05-20T05:00:35.920Z,-91.00
2023-05-20T05:01:36.222Z,-91.00
2023-05-20T05:02:36.927Z,-91.00
2023-05-20T05:03:37.588Z,-91.00
2023-05-20T05:04:38.240Z,-91.00
2023-05-20T05:05:39.988Z,-90.00
2023-05-20T05:06:39.698Z,-90.00
2023-05-20T05:07:40.529Z,-91.00
2023-05-20T05:08:41.316Z,-90.00
2023-05-20T05:09:41.852Z,-91.00
2023-05-20T05:10:42.327Z,-91.00
2023-05-20T05:11:42.757Z,-90.00
2023-05-20T05:12:43.212Z,-91.00
2023-05-20T05:13:43.676Z,-91.00
2023-05-20T05:14:44.096Z,-91.00
2023-05-20T05:15:44.557Z,-91.00
2023-05-20T05:15:56.631Z,-90.00
2023-05-20T05:16:55.660Z,-91.00
2023-05-20T05:17:54.575Z,-91.00
2023-05-20T05:18:55.217Z,-91.00
2023-05-20T05:19:55.204Z,-89.00
2023-05-20T05:20:55.769Z,-90.00
2023-05-20T05:21:56.376Z,-90.00
2023-05-20T05:22:57.056Z,-90.00
2023-05-20T05:23:58.504Z,-90.00
2023-05-20T05:24:58.251Z,-90.00
2023-05-20T05:25:58.803Z,-90.00
2023-05-20T05:26:59.562Z,-90.00
2023-05-20T05:28:00.596Z,-90.00
2023-05-20T05:29:00.996Z,-89.00
2023-05-20T05:30:01.415Z,-89.00
2023-05-20T05:31:01.793Z,-88.00
2023-05-20T05:32:02.217Z,-91.00
2023-05-20T05:33:02.821Z,-92.00
2023-05-20T05:34:03.018Z,-91.00
2023-05-20T05:35:04.250Z,-90.00
2023-05-20T05:36:03.850Z,-92.00
2023-05-20T05:37:04.271Z,-92.00
2023-05-20T05:38:04.827Z,-91.00
2023-05-20T05:39:05.225Z,-90.00
2023-05-20T05:40:05.648Z,-89.00
2023-05-20T05:41:05.965Z,-89.00
2023-05-20T05:42:06.412Z,-91.00
2023-05-20T05:43:06.799Z,-90.00
2023-05-20T05:44:07.222Z,-90.00
2023-05-20T05:45:07.679Z,-91.00
2023-05-20T05:46:07.859Z,-90.00
2023-05-20T05:47:08.540Z,-91.00
2023-05-20T05:48:09.113Z,-91.00
2023-05-20T05:48:17.763Z,-90.00
2023-05-20T05:49:17.700Z,-91.00
2023-05-20T05:50:18.150Z,-91.00
2023-05-20T05:51:18.562Z,-91.00
2023-05-20T05:52:19.020Z,-90.00
2023-05-20T05:53:19.445Z,-90.00
2023-05-20T05:54:19.914Z,-89.00
2023-05-20T05:55:20.673Z,-89.00
2023-05-20T05:56:21.128Z,-90.00
2023-05-20T05:57:21.633Z,-90.00
2023-05-20T05:58:22.455Z,-90.00
2023-05-20T05:59:22.859Z,-90.00
2023-05-20T06:00:23.374Z,-90.00
2023-05-20T06:01:23.886Z,-90.00
2023-05-20T06:02:24.314Z,-90.00
2023-05-20T06:03:24.795Z,-91.00
2023-05-20T06:04:25.407Z,-90.00
2023-05-20T06:05:28.210Z,-90.00
2023-05-20T06:06:26.378Z,-91.00
2023-05-20T06:07:26.951Z,-90.00
2023-05-20T06:08:27.403Z,-90.00
2023-05-20T06:09:27.771Z,-90.00
2023-05-20T06:10:28.164Z,-89.00
2023-05-20T06:11:28.518Z,-91.00
2023-05-20T06:12:29.105Z,-92.00
2023-05-20T06:13:29.635Z,-91.00
2023-05-20T06:14:30.030Z,-92.00
2023-05-20T06:15:30.434Z,-91.00
2023-05-20T06:16:30.848Z,-92.00
2023-05-20T06:17:31.838Z,-92.00
2023-05-20T06:18:32.280Z,-91.00
2023-05-20T06:19:32.705Z,-91.00
2023-05-20T06:20:33.031Z,-91.00
2023-05-20T06:21:33.516Z,-92.00
2023-05-20T06:21:42.164Z,-90.00
2023-05-20T06:22:42.793Z,-91.00
2023-05-20T06:23:43.501Z,-91.00
2023-05-20T06:24:44.190Z,-91.00
2023-05-20T06:25:44.841Z,-91.00
2023-05-20T06:26:45.500Z,-91.00
2023-05-20T06:27:46.148Z,-91.00
2023-05-20T06:28:46.773Z,-91.00
2023-05-20T06:29:47.417Z,-90.00
2023-05-20T06:30:47.717Z,-90.00
2023-05-20T06:31:48.475Z,-90.00
2023-05-20T06:32:49.152Z,-91.00
2023-05-20T06:33:49.745Z,-90.00
2023-05-20T06:34:50.202Z,-91.00
2023-05-20T06:35:50.655Z,-91.00
2023-05-20T06:36:51.035Z,-91.00
2023-05-20T06:37:51.547Z,-91.00
2023-05-20T06:38:52.011Z,-91.00
2023-05-20T06:39:52.466Z,-91.00
2023-05-20T06:40:52.904Z,-91.00
2023-05-20T06:41:54.551Z,-90.00
2023-05-20T06:42:54.935Z,-91.00
2023-05-20T06:43:54.463Z,-91.00
2023-05-20T06:44:54.830Z,-91.00
2023-05-20T06:45:55.234Z,-91.00
2023-05-20T06:46:55.665Z,-91.00
2023-05-20T06:47:56.035Z,-91.00
2023-05-20T06:48:56.513Z,-91.00
2023-05-20T06:49:56.892Z,-91.00
2023-05-20T06:50:57.269Z,-91.00
2023-05-20T06:51:57.672Z,-90.00
2023-05-20T06:52:06.378Z,-89.00
2023-05-20T06:53:06.851Z,-91.00
2023-05-20T06:54:07.313Z,-90.00
2023-05-20T06:55:07.761Z,-91.00
2023-05-20T06:56:08.163Z,-91.00
2023-05-20T06:57:08.615Z,-91.00
2023-05-20T06:58:09.105Z,-91.00
2023-05-20T06:59:09.483Z,-90.00
2023-05-20T07:00:10.002Z,-91.00
2023-05-20T07:01:10.567Z,-90.00
2023-05-20T07:02:11.146Z,-91.00
2023-05-20T07:03:11.945Z,-91.00
2023-05-20T07:04:12.786Z,-90.00
2023-05-20T07:05:13.331Z,-91.00
2023-05-20T07:06:13.963Z,-91.00
2023-05-20T07:07:17.224Z,-90.00
2023-05-20T07:08:15.338Z,-91.00
2023-05-20T07:09:15.462Z,-91.00
2023-05-20T07:10:16.124Z,-91.00
2023-05-20T07:11:17.743Z,-91.00
2023-05-20T07:12:17.382Z,-91.00
2023-05-20T07:13:18.045Z,-89.00
2023-05-20T07:14:18.650Z,-89.00
2023-05-20T07:15:19.369Z,-90.00
2023-05-20T07:16:20.017Z,-91.00
2023-05-20T07:17:20.582Z,-91.00
2023-05-20T07:18:21.232Z,-91.00
2023-05-20T07:19:21.895Z,-91.00
2023-05-20T07:20:22.532Z,-88.00
2023-05-20T07:21:23.129Z,-91.00
2023-05-20T07:22:23.729Z,-89.00
2023-05-20T07:23:24.425Z,-90.00
2023-05-20T07:23:33.171Z,-91.00
2023-05-20T07:24:33.755Z,-90.00
2023-05-20T07:25:34.636Z,-90.00
2023-05-20T07:26:35.105Z,-93.00
2023-05-20T07:27:35.748Z,-88.00
2023-05-20T07:28:36.456Z,-88.00
2023-05-20T07:29:36.994Z,-88.00
2023-05-20T07:30:37.471Z,-89.00
2023-05-20T07:31:38.016Z,-88.00
2023-05-20T07:32:38.787Z,-88.00
2023-05-20T07:33:39.381Z,-89.00
2023-05-20T07:34:39.823Z,-87.00
2023-05-20T07:35:40.619Z,-87.00
2023-05-20T07:36:41.065Z,-88.00
2023-05-20T07:37:41.497Z,-88.00
2023-05-20T07:38:52.661Z,-87.00
2023-05-20T07:39:42.609Z,-88.00
2023-05-20T07:40:43.046Z,-90.00
2023-05-20T07:41:43.423Z,-89.00
2023-05-20T07:42:43.890Z,-86.00
2023-05-20T07:43:44.441Z,-86.00
2023-05-20T07:44:44.988Z,-90.00
2023-05-20T07:45:45.588Z,-87.00
2023-05-20T07:46:45.977Z,-90.00
2023-05-20T07:47:46.726Z,-90.00
2023-05-20T07:48:47.343Z,-90.00
2023-05-20T07:49:48.068Z,-89.00
2023-05-20T07:50:48.737Z,-88.00
2023-05-20T07:51:49.322Z,-89.00
2023-05-20T07:52:56.311Z,-87.00
2023-05-20T07:53:50.479Z,-89.00
2023-05-20T07:54:50.927Z,-90.00
2023-05-20T07:54:59.591Z,-89.00
2023-05-20T07:56:00.277Z,-89.00
2023-05-20T07:57:00.839Z,-88.00
2023-05-20T07:58:01.434Z,-87.00
2023-05-20T07:59:02.155Z,-88.00
2023-05-20T08:00:02.895Z,-88.00
2023-05-20T08:01:04.676Z,-89.00
2023-05-20T08:02:04.554Z,-88.00
2023-05-20T08:03:05.422Z,-88.00
2023-05-20T08:04:06.011Z,-89.00
2023-05-20T08:05:06.458Z,-89.00
2023-05-20T08:06:07.049Z,-89.00
2023-05-20T08:07:07.532Z,-89.00
2023-05-20T08:08:08.173Z,-89.00
2023-05-20T08:09:08.821Z,-88.00
2023-05-20T08:10:10.480Z,-88.00
2023-05-20T08:11:10.173Z,-87.00
2023-05-20T08:12:10.923Z,-88.00
2023-05-20T08:13:11.542Z,-88.00
2023-05-20T08:14:12.349Z,-89.00
2023-05-20T08:15:13.128Z,-88.00
2023-05-20T08:16:14.909Z,-90.00
2023-05-20T08:17:14.704Z,-88.00
2023-05-20T08:18:14.767Z,-89.00
2023-05-20T08:19:15.572Z,-89.00
2023-05-20T08:20:16.226Z,-88.00
2023-05-20T08:21:16.973Z,-88.00
2023-05-20T08:22:17.674Z,-87.00
2023-05-20T08:23:18.244Z,-88.00
2023-05-20T08:24:18.776Z,-87.00
2023-05-20T08:24:27.465Z,-85.00
2023-05-20T08:25:28.006Z,-86.00
2023-05-20T08:26:28.501Z,-88.00
2023-05-20T08:27:29.280Z,-88.00
2023-05-20T08:28:30.033Z,-86.00
2023-05-20T08:29:30.540Z,-88.00
2023-05-20T08:30:31.222Z,-87.00
2023-05-20T08:31:31.781Z,-86.00
2023-05-20T08:32:32.191Z,-87.00
2023-05-20T08:33:32.638Z,-88.00
2023-05-20T08:34:33.478Z,-87.00
2023-05-20T08:35:34.352Z,-86.00
2023-05-20T08:36:34.608Z,-87.00
2023-05-20T08:37:35.094Z,-88.00
2023-05-20T08:38:35.542Z,-86.00
2023-05-20T08:39:36.142Z,-88.00
2023-05-20T08:40:36.824Z,-89.00
2023-05-20T08:41:37.489Z,-87.00
2023-05-20T08:42:38.442Z,-89.00
2023-05-20T08:43:38.507Z,-87.00
2023-05-20T08:44:39.254Z,-88.00
2023-05-20T08:45:39.952Z,-87.00
2023-05-20T08:46:40.158Z,-88.00
2023-05-20T08:47:40.815Z,-89.00
2023-05-20T08:48:41.530Z,-87.00
2023-05-20T08:49:42.191Z,-86.00
2023-05-20T08:50:43.209Z,-88.00
2023-05-20T08:51:43.378Z,-88.00
2023-05-20T08:52:44.310Z,-88.00
2023-05-20T08:53:44.795Z,-87.00
2023-05-20T08:54:45.286Z,-89.00
2023-05-20T08:55:45.798Z,-88.00
2023-05-20T08:56:46.576Z,-87.00
2023-05-20T08:57:03.082Z,-86.00
2023-05-20T08:57:59.110Z,-87.00
2023-05-20T08:58:59.779Z,-88.00
2023-05-20T09:00:00.484Z,-88.00
2023-05-20T09:01:01.166Z,-88.00
2023-05-20T09:02:02.119Z,-87.00
2023-05-20T09:03:02.894Z,-87.00
2023-05-20T09:04:03.563Z,-88.00
2023-05-20T09:05:04.443Z,-88.00
2023-05-20T09:06:05.036Z,-87.00
2023-05-20T09:07:05.622Z,-88.00
2023-05-20T09:08:06.383Z,-90.00
2023-05-20T09:09:07.117Z,-89.00
2023-05-20T09:10:07.392Z,-89.00
2023-05-20T09:11:07.397Z,-87.00
2023-05-20T09:12:08.391Z,-87.00
2023-05-20T09:13:08.920Z,-88.00
2023-05-20T09:14:09.585Z,-87.00
2023-05-20T09:15:11.370Z,-86.00
2023-05-20T09:16:10.458Z,-87.00
2023-05-20T09:17:11.104Z,-87.00
2023-05-20T09:18:11.846Z,-85.00
2023-05-20T09:19:12.463Z,-88.00
2023-05-20T09:20:13.112Z,-89.00
2023-05-20T09:21:13.253Z,-87.00
2023-05-20T09:22:13.900Z,-88.00
2023-05-20T09:23:14.723Z,-88.00
2023-05-20T09:24:15.416Z,-86.00
2023-05-20T09:25:15.781Z,-85.00
2023-05-20T09:26:17.439Z,-88.00
2023-05-20T09:27:17.378Z,-89.00
2023-05-20T09:27:29.883Z,-89.00
2023-05-20T09:28:30.387Z,-88.00
2023-05-20T09:29:30.881Z,-88.00
2023-05-20T09:30:30.897Z,-90.00
2023-05-20T09:31:31.393Z,-89.00
2023-05-20T09:32:32.148Z,-88.00
2023-05-20T09:33:32.432Z,-88.00
2023-05-20T09:34:32.458Z,-86.00
2023-05-20T09:35:33.459Z,-87.00
2023-05-20T09:36:34.072Z,-87.00
2023-05-20T09:37:34.950Z,-86.00
2023-05-20T09:38:35.359Z,-89.00
2023-05-20T09:39:36.012Z,-89.00
2023-05-20T09:40:36.587Z,-86.00
2023-05-20T09:41:37.088Z,-87.00
2023-05-20T09:42:37.699Z,-87.00
2023-05-20T09:43:38.178Z,-88.00
2023-05-20T09:44:38.978Z,-87.00
2023-05-20T09:45:39.789Z,-85.00
2023-05-20T09:46:40.645Z,-88.00
2023-05-20T09:47:41.328Z,-88.00
2023-05-20T09:48:41.356Z,-89.00
2023-05-20T09:49:41.995Z,-87.00
2023-05-20T09:50:42.686Z,-87.00
2023-05-20T09:51:43.240Z,-87.00
2023-05-20T09:52:43.648Z,-87.00
2023-05-20T09:53:44.458Z,-87.00
2023-05-20T09:54:44.796Z,-88.00
2023-05-20T09:55:45.691Z,-87.00
2023-05-20T09:56:46.117Z,-87.00
2023-05-20T09:57:46.628Z,-87.00
2023-05-20T09:58:47.516Z,-89.00
2023-05-20T09:58:59.167Z,-88.00
2023-05-20T10:00:01.054Z,-91.00
2023-05-20T10:00:59.995Z,-89.00
2023-05-20T10:02:00.696Z,-89.00
2023-05-20T10:03:01.234Z,-87.00
2023-05-20T10:04:01.958Z,-89.00
2023-05-20T10:05:02.832Z,-88.00
2023-05-20T10:06:03.720Z,-89.00
2023-05-20T10:07:04.714Z,-89.00
2023-05-20T10:08:05.395Z,-88.00
2023-05-20T10:09:06.106Z,-90.00
2023-05-20T10:10:06.729Z,-88.00
2023-05-20T10:11:07.332Z,-89.00
2023-05-20T10:12:07.899Z,-90.00
2023-05-20T10:13:08.320Z,-88.00
2023-05-20T10:14:08.747Z,-89.00
2023-05-20T10:15:09.205Z,-88.00
2023-05-20T10:16:09.857Z,-87.00
2023-05-20T10:17:10.023Z,-87.00
2023-05-20T10:18:10.444Z,-87.00
2023-05-20T10:19:11.118Z,-90.00
2023-05-20T10:20:11.680Z,-87.00
2023-05-20T10:21:12.214Z,-88.00
2023-05-20T10:22:12.908Z,-89.00
2023-05-20T10:23:13.548Z,-86.00
2023-05-20T10:24:14.125Z,-89.00
2023-05-20T10:25:14.520Z,-90.00
2023-05-20T10:26:14.937Z,-89.00
2023-05-20T10:27:15.464Z,-87.00
2023-05-20T10:28:15.894Z,-88.00
2023-05-20T10:29:17.505Z,-88.00
2023-05-20T10:29:26.207Z,-88.00
2023-05-20T10:30:27.074Z,-90.00
2023-05-20T10:31:27.579Z,-87.00
2023-05-20T10:32:28.235Z,-87.00
2023-05-20T10:33:28.659Z,-88.00
2023-05-20T10:34:29.534Z,-90.00
2023-05-20T10:35:29.969Z,-88.00
2023-05-20T10:36:30.455Z,-91.00
2023-05-20T10:37:31.019Z,-88.00
2023-05-20T10:38:32.467Z,-89.00
2023-05-20T10:39:32.040Z,-88.00
2023-05-20T10:40:32.837Z,-90.00
2023-05-20T10:41:33.116Z,-87.00
2023-05-20T10:42:33.872Z,-88.00
2023-05-20T10:43:34.571Z,-89.00
2023-05-20T10:44:35.373Z,-87.00
2023-05-20T10:45:35.852Z,-89.00
2023-05-20T10:46:53.979Z,-89.00
2023-05-20T10:47:37.360Z,-88.00
2023-05-20T10:48:39.948Z,-88.00
2023-05-20T10:49:38.207Z,-89.00
2023-05-20T10:50:38.676Z,-88.00
2023-05-20T10:51:39.093Z,-88.00
2023-05-20T10:52:39.711Z,-87.00
2023-05-20T10:53:40.143Z,-88.00
2023-05-20T10:54:40.700Z,-90.00
2023-05-20T10:55:41.148Z,-90.00
2023-05-20T10:56:41.650Z,-87.00
2023-05-20T10:57:42.163Z,-86.00
2023-05-20T10:58:42.726Z,-87.00
2023-05-20T10:59:43.302Z,-89.00
2023-05-20T11:00:43.838Z,-88.00
2023-05-20T11:00:52.513Z,-85.00
2023-05-20T11:01:52.817Z,-88.00
2023-05-20T11:02:54.523Z,-87.00
2023-05-20T11:03:53.838Z,-88.00
2023-05-20T11:04:54.305Z,-88.00
2023-05-20T11:05:54.739Z,-89.00
2023-05-20T11:06:55.209Z,-89.00
2023-05-20T11:07:55.862Z,-91.00
2023-05-20T11:08:56.450Z,-89.00
2023-05-20T11:09:58.535Z,-90.00
2023-05-20T11:10:58.563Z,-88.00
2023-05-20T11:11:58.926Z,-87.00
2023-05-20T11:12:59.863Z,-89.00
2023-05-20T11:13:59.851Z,-90.00
2023-05-20T11:15:00.416Z,-90.00
2023-05-20T11:16:01.259Z,-90.00
2023-05-20T11:17:01.813Z,-89.00
2023-05-20T11:18:02.421Z,-88.00
2023-05-20T11:19:03.228Z,-88.00
2023-05-20T11:20:03.742Z,-88.00
2023-05-20T11:21:04.349Z,-89.00
2023-05-20T11:22:05.077Z,-87.00
2023-05-20T11:23:05.604Z,-89.00
2023-05-20T11:24:06.521Z,-88.00
2023-05-20T11:25:06.984Z,-89.00
2023-05-20T11:26:07.868Z,-89.00
2023-05-20T11:27:08.680Z,-88.00
2023-05-20T11:28:09.144Z,-87.00
2023-05-20T11:28:17.902Z,-89.00
2023-05-20T11:29:18.364Z,-88.00
2023-05-20T11:30:19.066Z,-87.00
2023-05-20T11:31:19.772Z,-90.00
2023-05-20T11:32:20.588Z,-87.00
2023-05-20T11:33:21.120Z,-88.00
2023-05-20T11:34:24.153Z,-87.00
2023-05-20T11:35:22.443Z,-88.00
2023-05-20T11:36:27.864Z,-86.00
2023-05-20T11:37:23.729Z,-88.00
2023-05-20T11:38:24.511Z,-89.00
2023-05-20T11:39:25.240Z,-90.00
2023-05-20T11:40:28.727Z,-89.00
2023-05-20T11:41:26.943Z,-89.00
2023-05-20T11:42:27.549Z,-90.00
2023-05-20T11:43:28.563Z,-87.00
2023-05-20T11:44:28.330Z,-87.00
2023-05-20T11:45:28.959Z,-87.00
2023-05-20T11:46:29.439Z,-88.00
2023-05-20T11:47:30.126Z,-88.00
2023-05-20T11:48:30.824Z,-87.00
2023-05-20T11:49:31.331Z,-88.00
2023-05-20T11:50:31.800Z,-89.00
2023-05-20T11:51:32.196Z,-89.00
2023-05-20T11:52:32.632Z,-89.00
2023-05-20T11:53:33.216Z,-91.00
2023-05-20T11:54:33.707Z,-90.00
2023-05-20T11:55:34.687Z,-90.00
2023-05-20T11:56:35.146Z,-90.00
2023-05-20T11:57:35.722Z,-89.00
2023-05-20T11:58:36.456Z,-89.00
2023-05-20T11:58:46.207Z,-87.00
2023-05-20T11:59:47.056Z,-88.00
2023-05-20T12:00:51.624Z,-89.00
2023-05-20T12:01:48.083Z,-90.00
2023-05-20T12:02:48.678Z,-88.00
2023-05-20T12:03:49.564Z,-88.00
2023-05-20T12:04:49.452Z,-89.00
2023-05-20T12:05:50.008Z,-89.00
2023-05-20T12:06:50.678Z,-88.00
2023-05-20T12:07:51.367Z,-89.00
2023-05-20T12:08:52.237Z,-89.00
2023-05-20T12:09:52.822Z,-90.00
2023-05-20T12:10:56.236Z,-91.00
2023-05-20T12:11:53.872Z,-89.00
2023-05-20T12:12:54.552Z,-90.00
2023-05-20T12:13:55.396Z,-89.00
2023-05-20T12:14:56.131Z,-88.00
2023-05-20T12:15:56.742Z,-88.00